Garopaba, Brazil
Current Conditions -  °F | °C
As of 7:00 AM on Wednesday 22 Oct 2014 (Local Time) from SBFL Reporting Station
Scattered Clouds Scattered Clouds  
Wind Chill: 64°   Ceiling: Unl
Heat Index: 64°   Visibility: 6mi
Dew Point: 59°   Wind: 5mph
Humidity: 83%   Direction: 260°W
Pressure: 30.18"   Gusts: NA
Location:  28.07°S, 48.67°W
Report Text: SBFL 220900Z 26004KT 9999 SCT030 18/15 Q1022
Loading
Personal Weather Stations






























Interactive Weather Map
Tropical Storm Tracking
New forecast layout! Learn more

10-Day Weather Forecast

Advertisements
Track Severe Weather on mobile